International Virtual Aviation Organisation

Russian Federation and Kazakhstan MCD

 
UAAA 240800Z 01002MPS 330V050 3000 BR SCT100 BKN200 M04/M07 Q1025 R23R/91//60 R23L/3///50 NOSIG
QNH:(hPa/inHg/mmHg)1025 / 30.27 / 769
QFE:(hPa/inHg/mmHg)942 / 27.82 / 707
Temperature-4
Dew Point-7
Visibility3000
WeatherMist
Cloud CoverSCT (10000);
BKN (20000);
Transition Height600 m./4300 ft.
Transition LevelFL50
SQUAWK